createdAt,value
2018-05-26T00:01:09.013Z,10.33
2018-05-26T00:03:39.013Z,9.77
2018-05-26T00:06:14.426Z,8.07
2018-05-26T00:08:42.535Z,7.47
2018-05-26T00:11:27.862Z,8.60
2018-05-26T00:14:03.126Z,7.63
2018-05-26T00:16:33.034Z,7.83
2018-05-26T00:19:05.259Z,9.10
2018-05-26T00:21:51.573Z,9.33
2018-05-26T00:24:30.150Z,8.80
2018-05-26T00:26:59.118Z,7.57
2018-05-26T00:29:27.661Z,8.17
2018-05-26T00:32:09.790Z,6.80
2018-05-26T00:34:43.549Z,7.37
2018-05-26T00:37:12.355Z,10.00
2018-05-26T00:39:40.402Z,10.33
2018-05-26T00:42:11.606Z,11.17
2018-05-26T00:44:53.678Z,11.90
2018-05-26T00:47:22.733Z,11.33
2018-05-26T00:49:50.791Z,11.30
2018-05-26T00:52:23.909Z,11.30
2018-05-26T00:54:59.494Z,12.20
2018-05-26T00:57:30.830Z,11.60
2018-05-26T01:00:00.781Z,11.30
2018-05-26T01:02:38.557Z,10.90
2018-05-26T01:05:08.496Z,10.17
2018-05-26T01:07:41.533Z,9.63
2018-05-26T01:10:09.562Z,9.07
2018-05-26T01:12:40.493Z,10.80
2018-05-26T01:15:10.443Z,11.40
2018-05-26T01:17:39.221Z,10.70
2018-05-26T01:20:08.913Z,9.60
2018-05-26T01:22:40.869Z,9.37
2018-05-26T01:25:10.797Z,9.93
2018-05-26T01:27:41.495Z,9.93
2018-05-26T01:30:11.557Z,10.47
2018-05-26T01:32:40.344Z,9.93
2018-05-26T01:35:12.368Z,10.10
2018-05-26T01:37:40.411Z,10.70
2018-05-26T01:40:08.461Z,9.50
2018-05-26T01:42:41.753Z,10.93
2018-05-26T01:45:11.713Z,10.23
2018-05-26T01:47:40.641Z,8.87
2018-05-26T01:50:12.333Z,8.90
2018-05-26T01:52:40.344Z,8.73
2018-05-26T01:55:09.228Z,9.30
2018-05-26T01:57:40.692Z,10.10
2018-05-26T02:00:09.685Z,10.40
2018-05-26T02:02:39.721Z,10.00
2018-05-26T02:10:56.508Z,9.27
2018-05-26T02:13:24.536Z,11.30
2018-05-26T02:15:54.213Z,10.47
2018-05-26T02:18:24.149Z,10.20
2018-05-26T02:20:53.837Z,11.33
2018-05-26T02:23:39.856Z,9.50
2018-05-26T02:26:24.943Z,10.40
2018-05-26T02:29:05.144Z,9.90
2018-05-26T02:31:34.148Z,11.20
2018-05-26T02:34:10.599Z,12.33
2018-05-26T02:36:41.757Z,11.60
2018-05-26T02:39:29.021Z,12.10
2018-05-26T02:42:03.089Z,11.23
2018-05-26T02:44:31.437Z,12.80
2018-05-26T02:46:59.485Z,11.97
2018-05-26T02:49:27.520Z,12.93
2018-05-26T02:52:08.836Z,15.07
2018-05-26T02:54:37.764Z,15.13
2018-05-26T02:57:05.772Z,14.50
2018-05-26T02:59:39.141Z,15.50
2018-05-26T03:02:15.569Z,16.43
2018-05-26T03:04:49.324Z,16.30
2018-05-26T03:07:27.616Z,17.30
2018-05-26T03:10:05.180Z,17.00
2018-05-26T03:12:44.404Z,16.70
2018-05-26T03:15:31.848Z,17.03
2018-05-26T03:18:09.058Z,17.57
2018-05-26T03:20:39.044Z,17.37
2018-05-26T03:26:01.609Z,16.50
2018-05-26T03:28:30.536Z,17.90
2018-05-26T03:30:58.560Z,15.87
2018-05-26T03:33:27.612Z,17.20
2018-05-26T03:36:07.127Z,15.77
2018-05-26T03:38:35.164Z,16.47
2018-05-26T03:41:03.204Z,17.03
2018-05-26T03:43:35.084Z,16.60
2018-05-26T03:46:03.112Z,17.87
2018-05-26T03:48:33.123Z,16.87
2018-05-26T03:51:01.188Z,17.17
2018-05-26T03:53:32.256Z,17.00
2018-05-26T03:56:17.821Z,18.50
2018-05-26T03:58:57.483Z,18.00
2018-05-26T04:01:28.324Z,19.50
2018-05-26T04:04:02.628Z,18.13
2018-05-26T04:06:33.568Z,18.83
2018-05-26T04:09:09.888Z,17.30
2018-05-26T04:11:40.640Z,17.83
2018-05-26T04:14:10.523Z,19.50
2018-05-26T04:16:40.506Z,18.10
2018-05-26T04:19:12.033Z,17.03
2018-05-26T04:21:40.107Z,17.07
2018-05-26T04:24:15.643Z,18.67
2018-05-26T04:26:51.235Z,19.90
2018-05-26T04:29:23.415Z,18.43
2018-05-26T04:31:53.368Z,18.33
2018-05-26T04:34:23.299Z,20.17
2018-05-26T04:37:10.168Z,17.60
2018-05-26T04:39:40.259Z,15.83
2018-05-26T04:42:10.236Z,17.30
2018-05-26T04:44:55.975Z,15.63
2018-05-26T04:47:28.531Z,17.27
2018-05-26T04:49:56.547Z,15.83
2018-05-26T04:52:38.687Z,16.03
2018-05-26T04:55:07.468Z,15.73
2018-05-26T04:57:40.215Z,16.87
2018-05-26T05:00:19.940Z,17.20
2018-05-26T05:02:47.995Z,17.23
2018-05-26T05:05:24.583Z,15.77
2018-05-26T05:07:55.730Z,19.23
2018-05-26T05:10:25.662Z,16.67
2018-05-26T05:12:54.587Z,17.50
2018-05-26T05:15:24.279Z,17.20
2018-05-26T05:18:10.743Z,16.97
2018-05-26T05:20:39.783Z,17.47
2018-05-26T05:23:10.480Z,15.40
2018-05-26T05:25:39.431Z,16.43
2018-05-26T05:28:09.332Z,16.10
2018-05-26T05:30:38.107Z,16.63
2018-05-26T05:33:06.924Z,15.40
2018-05-26T05:35:34.936Z,16.30
2018-05-26T05:38:10.667Z,15.37
2018-05-26T05:40:38.690Z,14.87
2018-05-26T05:43:20.300Z,14.23
2018-05-26T05:45:49.239Z,12.97
2018-05-26T05:48:25.483Z,12.57
2018-05-26T05:50:58.419Z,12.70
2018-05-26T05:53:33.395Z,12.40
2018-05-26T05:56:02.409Z,11.27
2018-05-26T05:58:30.415Z,10.97
2018-05-26T06:01:00.196Z,10.33
2018-05-26T06:03:30.860Z,10.47
2018-05-26T06:06:18.620Z,10.53
2018-05-26T06:08:54.992Z,12.07
2018-05-26T06:11:24.032Z,11.07
2018-05-26T06:13:57.884Z,12.87
2018-05-26T06:16:31.823Z,11.87
2018-05-26T06:19:09.684Z,12.37
2018-05-26T06:21:39.656Z,11.30
2018-05-26T06:24:07.700Z,11.00
2018-05-26T06:26:35.688Z,11.50
2018-05-26T06:29:08.060Z,11.03
2018-05-26T06:31:39.123Z,11.70
2018-05-26T06:34:29.347Z,10.57
2018-05-26T06:36:59.248Z,9.70
2018-05-26T06:39:27.296Z,9.63
2018-05-26T06:41:56.200Z,10.37
2018-05-26T06:44:30.381Z,8.40
2018-05-26T06:47:15.680Z,9.03
2018-05-26T06:49:44.467Z,9.10
2018-05-26T06:52:20.708Z,8.23
2018-05-26T06:54:50.672Z,8.10
2018-05-26T06:57:32.328Z,7.67
2018-05-26T07:00:01.296Z,7.50
2018-05-26T07:02:29.295Z,6.70
2018-05-26T07:04:58.059Z,5.90
2018-05-26T07:07:27.767Z,6.90
2018-05-26T07:09:55.780Z,5.27
2018-05-26T07:12:23.983Z,7.27
2018-05-26T07:14:58.739Z,7.43
2018-05-26T07:17:38.683Z,7.20
2018-05-26T07:20:29.859Z,6.00
2018-05-26T07:23:04.883Z,5.40
2018-05-26T07:25:38.283Z,6.20
2018-05-26T07:31:01.091Z,5.40
2018-05-26T07:33:29.103Z,5.20
2018-05-26T07:36:01.131Z,5.23
2018-05-26T07:38:31.039Z,6.03
2018-05-26T07:41:18.824Z,4.90
2018-05-26T07:43:48.767Z,4.47
2018-05-26T07:46:18.691Z,3.40
2018-05-26T07:48:46.695Z,4.10
2018-05-26T07:51:28.083Z,4.10
2018-05-26T07:54:07.268Z,3.97
2018-05-26T07:56:35.296Z,4.10
2018-05-26T07:59:03.311Z,4.10
2018-05-26T08:01:34.583Z,4.47
2018-05-26T08:04:04.579Z,4.43
2018-05-26T08:06:32.583Z,3.70
2018-05-26T08:09:01.355Z,4.10
2018-05-26T08:11:29.359Z,4.10
2018-05-26T08:13:58.259Z,4.10
2018-05-26T08:16:26.275Z,4.50
2018-05-26T08:18:56.163Z,4.40
2018-05-26T08:21:38.123Z,3.37
2018-05-26T08:24:30.495Z,3.80
2018-05-26T08:26:58.515Z,3.27
2018-05-26T08:29:28.407Z,3.37
2018-05-26T08:32:04.343Z,3.13
2018-05-26T08:34:39.539Z,3.30
2018-05-26T08:37:10.331Z,3.70
2018-05-26T08:39:39.239Z,3.97
2018-05-26T08:42:08.199Z,3.33
2018-05-26T08:44:40.039Z,3.57
2018-05-26T08:47:21.319Z,3.33
2018-05-26T08:49:53.747Z,4.27
2018-05-26T08:52:22.639Z,3.97
2018-05-26T08:54:58.312Z,3.83
2018-05-26T08:57:30.794Z,3.50
2018-05-26T09:00:10.659Z,3.70
2018-05-26T09:02:39.550Z,3.97
2018-05-26T09:05:11.128Z,4.20
2018-05-26T09:07:43.767Z,3.73
2018-05-26T09:10:18.303Z,3.70
2018-05-26T09:12:50.481Z,3.93
2018-05-26T09:15:33.675Z,3.33
2018-05-26T09:18:05.363Z,3.40
2018-05-26T09:20:33.372Z,3.03
2018-05-26T09:23:07.503Z,3.00
2018-05-26T09:25:36.673Z,3.27
2018-05-26T09:28:10.355Z,2.70
2018-05-26T09:30:39.339Z,3.53
2018-05-26T09:33:09.243Z,3.00
2018-05-26T09:35:38.994Z,3.20
2018-05-26T09:38:06.996Z,3.53
2018-05-26T09:40:36.963Z,3.40
2018-05-26T09:43:05.948Z,3.53
2018-05-26T09:45:34.847Z,3.10
2018-05-26T09:48:03.807Z,2.67
2018-05-26T09:50:36.131Z,2.67
2018-05-26T09:53:04.904Z,2.67
2018-05-26T09:55:37.787Z,3.30
2018-05-26T09:58:05.791Z,4.20
2018-05-26T10:00:33.799Z,4.07
2018-05-26T10:03:01.860Z,4.23
2018-05-26T10:05:30.575Z,3.60
2018-05-26T10:07:58.578Z,3.60
2018-05-26T10:10:30.336Z,3.93
2018-05-26T10:12:59.999Z,3.10
2018-05-26T10:15:33.055Z,3.87
2018-05-26T10:18:01.967Z,3.20
2018-05-26T10:20:33.946Z,3.37
2018-05-26T10:23:05.751Z,3.10
2018-05-26T10:25:33.775Z,3.57
2018-05-26T10:28:08.163Z,2.90
2018-05-26T10:30:37.891Z,3.43
2018-05-26T10:33:05.921Z,4.73
2018-05-26T10:35:33.972Z,3.87
2018-05-26T10:38:02.010Z,3.80
2018-05-26T10:40:31.635Z,3.63
2018-05-26T10:43:11.326Z,3.37
2018-05-26T10:45:39.395Z,4.30
2018-05-26T10:48:07.410Z,3.40
2018-05-26T10:50:35.414Z,3.40
2018-05-26T10:53:03.427Z,3.77
2018-05-26T10:55:38.039Z,3.57
2018-05-26T10:58:12.131Z,3.33
2018-05-26T11:00:40.171Z,3.43
2018-05-26T11:03:09.119Z,3.00
2018-05-26T11:05:37.131Z,3.70
2018-05-26T11:08:06.103Z,3.60
2018-05-26T11:10:34.500Z,3.70
2018-05-26T11:13:02.768Z,3.40
2018-05-26T11:15:34.114Z,3.57
2018-05-26T11:18:02.334Z,3.90
2018-05-26T11:20:35.355Z,4.60
2018-05-26T11:23:03.427Z,4.13
2018-05-26T11:25:33.468Z,4.37
2018-05-26T11:28:01.467Z,4.03
2018-05-26T11:30:29.487Z,4.00
2018-05-26T11:32:57.487Z,4.13
2018-05-26T11:35:30.750Z,6.60
2018-05-26T11:38:00.263Z,5.00
2018-05-26T11:40:30.271Z,4.80
2018-05-26T11:42:59.202Z,5.03
2018-05-26T11:45:30.550Z,5.23
2018-05-26T11:48:00.231Z,4.80
2018-05-26T11:50:30.129Z,5.07
2018-05-26T11:53:00.170Z,4.03
2018-05-26T11:55:35.103Z,5.00
2018-05-26T11:58:03.151Z,4.23
2018-05-26T12:00:32.058Z,5.23
2018-05-26T12:03:00.963Z,5.13
2018-05-26T12:05:41.502Z,4.47
2018-05-26T12:08:10.479Z,4.27
2018-05-26T12:10:39.470Z,5.00
2018-05-26T12:13:10.646Z,4.30
2018-05-26T12:15:38.690Z,4.50
2018-05-26T12:18:07.038Z,4.10
2018-05-26T12:20:48.502Z,4.53
2018-05-26T12:23:16.518Z,4.80
2018-05-26T12:25:46.182Z,4.60
2018-05-26T12:28:26.662Z,3.73
2018-05-26T12:30:57.941Z,3.67
2018-05-26T12:33:25.966Z,3.50
2018-05-26T12:35:56.014Z,3.10
2018-05-26T12:38:25.011Z,3.20
2018-05-26T12:40:53.922Z,3.47
2018-05-26T12:43:27.250Z,3.40
2018-05-26T12:45:56.177Z,3.63
2018-05-26T12:48:25.156Z,3.50
2018-05-26T12:50:57.046Z,3.60
2018-05-26T12:53:31.622Z,2.97
2018-05-26T12:56:00.585Z,3.00
2018-05-26T12:58:33.796Z,2.83
2018-05-26T13:01:07.874Z,2.73
2018-05-26T13:03:36.789Z,35.13
2018-05-26T13:06:06.559Z,5.80
2018-05-26T13:08:48.421Z,2.80
2018-05-26T13:11:17.552Z,2.73
2018-05-26T13:13:46.973Z,3.60
2018-05-26T13:16:16.945Z,2.40
2018-05-26T13:18:44.961Z,2.63
2018-05-26T13:21:14.938Z,3.20
2018-05-26T13:23:44.857Z,3.00
2018-05-26T13:26:13.210Z,3.20
2018-05-26T13:28:42.185Z,3.30
2018-05-26T13:31:12.106Z,2.80
2018-05-26T13:33:40.117Z,3.37
2018-05-26T13:36:22.960Z,3.00
2018-05-26T13:38:55.410Z,3.33
2018-05-26T13:41:25.326Z,3.40
2018-05-26T13:43:53.325Z,3.37
2018-05-26T13:46:21.326Z,3.63
2018-05-26T13:48:49.338Z,6.20
2018-05-26T13:51:20.663Z,3.07
2018-05-26T13:53:48.770Z,3.00
2018-05-26T13:56:27.165Z,3.80
2018-05-26T13:58:55.197Z,3.40
2018-05-26T14:01:23.246Z,2.73
2018-05-26T14:03:57.326Z,2.80
2018-05-26T14:06:32.829Z,3.33
2018-05-26T14:09:13.393Z,3.03
2018-05-26T14:11:42.305Z,3.33
2018-05-26T14:14:21.425Z,2.90
2018-05-26T14:16:49.489Z,4.03
2018-05-26T14:19:19.245Z,4.20
2018-05-26T14:21:48.233Z,3.63
2018-05-26T14:24:27.445Z,3.63
2018-05-26T14:26:56.481Z,3.70
2018-05-26T14:29:27.168Z,4.20
2018-05-26T14:31:56.185Z,3.20
2018-05-26T14:34:31.673Z,3.80
2018-05-26T14:37:05.013Z,3.60
2018-05-26T14:39:47.340Z,3.70
2018-05-26T14:42:18.036Z,3.83
2018-05-26T14:44:50.813Z,3.83
2018-05-26T14:47:20.833Z,3.27
2018-05-26T14:49:48.917Z,3.40
2018-05-26T14:52:16.845Z,3.40
2018-05-26T14:54:49.292Z,3.20
2018-05-26T14:57:17.544Z,3.90
2018-05-26T14:59:49.197Z,4.00
2018-05-26T15:02:17.209Z,3.23
2018-05-26T15:04:46.013Z,3.83
2018-05-26T15:07:14.013Z,3.60
2018-05-26T15:09:48.097Z,4.63
2018-05-26T15:12:18.034Z,3.83
2018-05-26T15:14:58.140Z,3.90
2018-05-26T15:17:30.437Z,4.17
2018-05-26T15:20:06.953Z,4.03
2018-05-26T15:22:46.683Z,3.53
2018-05-26T15:25:14.717Z,3.27
2018-05-26T15:27:59.256Z,3.30
2018-05-26T15:30:28.393Z,3.30
2018-05-26T15:32:56.420Z,3.73
2018-05-26T15:35:26.450Z,3.40
2018-05-26T15:38:13.060Z,3.57
2018-05-26T15:40:42.137Z,3.30
2018-05-26T15:43:12.133Z,3.60
2018-05-26T15:45:45.672Z,4.00
2018-05-26T15:48:29.701Z,3.40
2018-05-26T15:50:59.645Z,3.70
2018-05-26T15:53:29.661Z,3.00
2018-05-26T15:55:58.653Z,3.60
2018-05-26T15:58:32.461Z,3.10
2018-05-26T16:01:09.097Z,4.10
2018-05-26T16:03:47.109Z,3.57
2018-05-26T16:06:17.057Z,3.37
2018-05-26T16:08:56.068Z,3.40
2018-05-26T16:14:21.940Z,3.47
2018-05-26T16:16:57.332Z,4.17
2018-05-26T16:19:25.353Z,3.60
2018-05-26T16:22:11.072Z,3.40
2018-05-26T16:24:40.725Z,6.13
2018-05-26T16:27:14.532Z,2.83
2018-05-26T16:29:47.632Z,6.47
2018-05-26T16:35:24.464Z,3.20
2018-05-26T16:40:46.808Z,3.10
2018-05-26T16:43:15.580Z,3.43
2018-05-26T16:45:44.537Z,2.90
2018-05-26T16:48:16.720Z,2.93
2018-05-26T16:50:46.725Z,3.43
2018-05-26T16:53:14.729Z,2.83
2018-05-26T16:55:47.185Z,3.20
2018-05-26T16:58:15.189Z,3.17
2018-05-26T17:00:47.621Z,2.70
2018-05-26T17:03:20.597Z,3.13
2018-05-26T17:05:55.313Z,3.23
2018-05-26T17:08:31.257Z,3.20
2018-05-26T17:14:03.954Z,3.30
2018-05-26T17:16:46.765Z,3.30
2018-05-26T17:25:02.496Z,3.87
2018-05-26T17:27:35.012Z,3.40
2018-05-26T17:30:09.684Z,3.63
2018-05-26T17:32:38.756Z,3.30
2018-05-26T17:35:12.424Z,3.53
2018-05-26T17:37:44.113Z,3.43
2018-05-26T17:40:31.304Z,3.63
2018-05-26T17:43:13.989Z,3.90
2018-05-26T17:45:45.748Z,3.77
2018-05-26T17:48:31.872Z,4.10
2018-05-26T17:51:03.248Z,4.27
2018-05-26T17:53:31.352Z,3.37
2018-05-26T17:59:03.128Z,3.80
2018-05-26T18:01:35.432Z,3.93
2018-05-26T18:04:15.353Z,4.10
2018-05-26T18:06:44.288Z,3.80
2018-05-26T18:18:11.460Z,3.53
2018-05-26T18:20:50.609Z,3.80
2018-05-26T18:23:33.685Z,4.40
2018-05-26T18:28:56.196Z,4.80
2018-05-26T18:31:26.204Z,4.10
2018-05-26T18:34:00.308Z,4.07
2018-05-26T18:39:21.617Z,4.10
2018-05-26T18:42:09.645Z,4.70
2018-05-26T18:44:38.637Z,4.77
2018-05-26T18:47:08.593Z,4.60
2018-05-26T18:49:45.045Z,4.83
2018-05-26T18:52:34.699Z,4.93
2018-05-26T18:55:08.453Z,5.20
2018-05-26T18:57:40.104Z,5.00
2018-05-26T19:00:10.044Z,5.63
2018-05-26T19:02:57.283Z,5.70
2018-05-26T19:05:25.304Z,6.20
2018-05-26T19:13:46.348Z,5.07
2018-05-26T19:16:33.415Z,5.20
2018-05-26T19:19:06.760Z,5.17
2018-05-26T19:21:38.735Z,5.87
2018-05-26T19:24:26.656Z,6.80
2018-05-26T19:26:55.672Z,8.03
2018-05-26T19:29:44.476Z,8.90
2018-05-26T19:32:12.500Z,10.93
2018-05-26T19:34:41.507Z,9.70
2018-05-26T19:43:08.035Z,8.13
2018-05-26T19:45:57.164Z,8.70
2018-05-26T19:54:20.004Z,6.90
2018-05-26T19:56:48.056Z,6.63
2018-05-26T19:59:23.696Z,7.20
2018-05-26T20:01:59.792Z,6.97
2018-05-26T20:04:33.655Z,6.53
2018-05-26T20:10:19.968Z,7.60
2018-05-26T20:12:53.484Z,7.57
2018-05-26T20:15:36.227Z,8.40
2018-05-26T20:18:13.064Z,7.93
2018-05-26T20:20:42.836Z,7.10
2018-05-26T20:23:16.008Z,8.43
2018-05-26T20:25:51.856Z,7.77
2018-05-26T20:28:38.592Z,8.20
2018-05-26T20:31:19.038Z,8.20
2018-05-26T20:33:56.807Z,7.90
2018-05-26T20:36:31.611Z,8.93
2018-05-26T20:39:06.296Z,8.97
2018-05-26T20:41:38.945Z,8.50
2018-05-26T20:44:17.668Z,8.60
2018-05-26T20:46:58.844Z,8.80
2018-05-26T20:49:30.380Z,8.10
2018-05-26T20:51:59.711Z,8.20
2018-05-26T20:54:29.708Z,8.63
2018-05-26T20:57:03.864Z,8.87
2018-05-26T21:02:29.368Z,8.50
2018-05-26T21:05:03.788Z,9.43
2018-05-26T21:07:36.483Z,9.67
2018-05-26T21:10:07.213Z,9.37
2018-05-26T21:12:37.108Z,9.27
2018-05-26T21:15:05.147Z,10.53
2018-05-26T21:17:35.120Z,9.37
2018-05-26T21:20:04.896Z,9.03
2018-05-26T21:22:43.072Z,9.40
2018-05-26T21:25:15.099Z,9.57
2018-05-26T21:27:57.304Z,10.60
2018-05-26T21:30:34.340Z,9.47
2018-05-26T21:33:04.255Z,8.47
2018-05-26T21:35:32.283Z,8.17
2018-05-26T21:38:03.588Z,7.57
2018-05-26T21:40:33.599Z,7.63
2018-05-26T21:43:03.623Z,8.13
2018-05-26T21:45:32.612Z,8.10
2018-05-26T21:48:04.912Z,8.73
2018-05-26T21:50:35.615Z,8.30
2018-05-26T21:53:04.611Z,8.33
2018-05-26T21:55:32.645Z,8.47
2018-05-26T21:58:15.349Z,9.83
2018-05-26T22:00:44.319Z,8.90
2018-05-26T22:03:13.319Z,9.93
2018-05-26T22:05:43.728Z,8.43
2018-05-26T22:08:11.695Z,8.80
2018-05-26T22:10:42.388Z,8.40
2018-05-26T22:13:12.459Z,8.07
2018-05-26T22:15:42.351Z,8.10
2018-05-26T22:18:12.363Z,7.80
2018-05-26T22:20:41.347Z,8.57
2018-05-26T22:23:12.603Z,8.77
2018-05-26T22:25:42.753Z,8.33
2018-05-26T22:28:16.275Z,8.87
2018-05-26T22:30:45.311Z,9.83
2018-05-26T22:33:24.818Z,7.90
2018-05-26T22:35:55.883Z,9.33
2018-05-26T22:38:29.879Z,8.47
2018-05-26T22:41:02.772Z,8.60
2018-05-26T22:43:54.651Z,10.33
2018-05-26T22:46:23.592Z,10.17
2018-05-26T22:48:51.838Z,11.07
2018-05-26T22:51:19.882Z,8.37
2018-05-26T22:53:47.923Z,9.00
2018-05-26T22:56:20.263Z,9.10
2018-05-26T22:58:50.220Z,9.33
2018-05-26T23:01:24.056Z,10.27
2018-05-26T23:03:53.967Z,10.07
2018-05-26T23:06:27.139Z,9.83
2018-05-26T23:08:58.902Z,8.80
2018-05-26T23:11:26.959Z,9.43
2018-05-26T23:13:57.710Z,10.10
2018-05-26T23:16:28.551Z,9.30
2018-05-26T23:18:57.511Z,10.17
2018-05-26T23:21:25.547Z,10.03
2018-05-26T23:23:53.615Z,10.60
2018-05-26T23:26:21.646Z,10.83
2018-05-26T23:28:51.627Z,9.90
2018-05-26T23:31:24.139Z,11.90
2018-05-26T23:33:53.926Z,10.87
2018-05-26T23:36:25.695Z,10.87
2018-05-26T23:38:56.371Z,9.67
2018-05-26T23:41:25.412Z,10.57
2018-05-26T23:43:53.475Z,11.50
2018-05-26T23:46:21.523Z,11.10
2018-05-26T23:48:53.306Z,11.53
2018-05-26T23:51:22.299Z,11.50
2018-05-26T23:53:51.299Z,10.93
2018-05-26T23:56:23.734Z,11.03
2018-05-26T23:58:59.433Z,10.63
